Terminal Aerodrome Forecast
Issued by NWS

Home | Current Version | Previous Version | Text Only | Print | Product List | Glossary Off
Versions: 1 2 3 4 5 6 7 8 9 10 11 12 13 14 15 16

000
FTUS45 KGGW 202320
TAFSDY
TAF
KSDY 202320Z 2100/2124 10006KT P6SM SKC
     FM211200 14004KT 4SM BR FEW025
     FM211500 17007KT P6SM SCT024
     FM211800 17008KT P6SM FEW180=

USA.gov is the U.S. government's official web portal to all federal, state and local government web resources and services.